Duncan, OK

3:39 PM CST on February 24, 2017 (GMT -0600)
Halliburton

Weather History for KDUC - November, 2013

Change the Weather History Date:

Sunday, November 17, 2013

  Actual Average (KLAW) Record (KLAW)
Temperature  
Mean Temperature 66 °F -  
Max Temperature 77 °F 61 °F 82 °F (1954)
Min Temperature 55 °F 38 °F 13 °F (1959)
Cooling Degree Days 1    
Growing Degree Days 16 (Base 50)    
Moisture  
Dew Point 46 °F    
Average Humidity 55    
Maximum Humidity 100    
Minimum Humidity 24    
Precipitation  
Precipitation 0.00 in - - ()
Sea Level Pressure  
Sea Level Pressure 29.82 in    
Wind  
Wind Speed 10 mph (WNW)    
Max Wind Speed 16 mph    
Max Gust Speed 22 mph    
Visibility 10 miles    
Events      
Averages and records for this station are not official NWS values.
T = Trace of Precipitation, MM = Missing Value Source: NWS Daily Summary

Daily Weather History Graph

Daily Weather History Graph

Search for Another Location

Airport or City:

Trip Planner

Search our weather history database for the weather conditions in past years. The results will help you decide how hot, cold, wet, or windy it might be!

Date:

Astronomy

Nov. 17, 2013 Rise Set
Actual Time 7:07 AM CST 5:25 PM CST
Civil Twilight 6:40 AM CST 5:52 PM CST
Nautical Twilight 6:10 AM CST 6:23 PM CST
Astronomical Twilight 5:40 AM CST 6:53 PM CST
Moon 5:43 PM CST (11/17) 7:03 AM CST (11/17)
Length of Visible Light 11h 12m
Length of Day
10h 18m
Full, 100% of the Moon is Illuminated
Nov 17
Full
Nov 25
Last Quarter
Dec 2
New
Dec 9
First Quarter
Dec 17
Full

Hourly Weather History & Observations

Time (CST) Temp. Dew Point Humidity Pressure Visibility Wind Dir Wind Speed Gust Speed Precip Events Conditions
12:15 AM 68.0 °F 62.6 °F 83% 29.63 in 10.0 mi SSW 12.7 mph 18.4 mph N/A   Clear
12:35 AM 68.0 °F 62.6 °F 83% 29.64 in 10.0 mi SSW 11.5 mph - N/A   Clear
12:55 AM 68.0 °F 62.6 °F 83% 29.64 in 10.0 mi SSW 13.8 mph 19.6 mph N/A   Clear
1:15 AM 68.0 °F 62.6 °F 83% 29.64 in 10.0 mi SSW 11.5 mph - N/A   Clear
1:35 AM 68.0 °F 62.6 °F 83% 29.63 in 10.0 mi SSW 13.8 mph - N/A   Clear
1:55 AM 66.2 °F 62.6 °F 88% 29.63 in 10.0 mi SSW 16.1 mph - N/A   Clear
2:15 AM 68.0 °F 62.6 °F 83% 29.63 in 10.0 mi SSW 16.1 mph - N/A   Clear
2:35 AM 68.0 °F 62.6 °F 83% 29.63 in 10.0 mi SSW 16.1 mph 21.9 mph N/A   Clear
2:55 AM 68.0 °F 62.6 °F 83% 29.63 in 10.0 mi SSW 13.8 mph 21.9 mph N/A   Clear
3:15 AM 66.2 °F 62.6 °F 88% 29.63 in 10.0 mi SSW 12.7 mph - N/A   Clear
3:35 AM 66.2 °F 62.6 °F 88% 29.63 in 10.0 mi SSW 12.7 mph 20.7 mph N/A   Clear
3:55 AM 66.2 °F 62.6 °F 88% 29.64 in 10.0 mi SSW 13.8 mph - N/A   Clear
4:15 AM 64.4 °F 62.6 °F 94% 29.64 in 10.0 mi SSW 12.7 mph 20.7 mph N/A   Clear
4:35 AM 64.4 °F 62.6 °F 94% 29.64 in 10.0 mi SSW 13.8 mph 19.6 mph N/A   Clear
4:55 AM 64.4 °F 62.6 °F 94% 29.64 in 10.0 mi SSW 12.7 mph 18.4 mph N/A   Clear
5:15 AM 64.4 °F 60.8 °F 88% 29.65 in 10.0 mi SW 8.1 mph - N/A   Clear
5:35 AM 62.6 °F 60.8 °F 94% 29.65 in 10.0 mi SW 11.5 mph - N/A   Clear
5:55 AM 62.6 °F 60.8 °F 94% 29.65 in 10.0 mi SW 10.4 mph - N/A   Clear
6:15 AM 62.6 °F 60.8 °F 94% 29.66 in 10.0 mi SW 10.4 mph 16.1 mph N/A   Clear
6:35 AM 62.6 °F 60.8 °F 94% 29.68 in 10.0 mi SW 10.4 mph - N/A   Clear
6:55 AM 62.6 °F 60.8 °F 94% 29.70 in 10.0 mi WSW 6.9 mph - N/A   Clear
7:15 AM 60.8 °F 60.8 °F 100% 29.71 in 10.0 mi WSW 5.8 mph - N/A   Clear
7:35 AM 60.8 °F 60.8 °F 100% 29.72 in 10.0 mi WSW 6.9 mph - N/A   Clear
7:55 AM 62.6 °F 60.8 °F 94% 29.73 in 10.0 mi WSW 6.9 mph - N/A   Clear
8:15 AM 62.6 °F 60.8 °F 94% 29.75 in 10.0 mi WSW 5.8 mph - N/A   Clear
8:35 AM 62.6 °F 60.8 °F 94% 29.76 in 10.0 mi WSW 4.6 mph - N/A   Clear
8:55 AM 64.4 °F 59.0 °F 83% 29.77 in 10.0 mi West 8.1 mph - N/A   Clear
9:15 AM 64.4 °F 59.0 °F 83% 29.78 in 10.0 mi West 8.1 mph - N/A   Clear
9:35 AM 68.0 °F 55.4 °F 64% 29.80 in 10.0 mi West 10.4 mph - N/A   Clear
9:55 AM 68.0 °F 53.6 °F 60% 29.80 in 10.0 mi WNW 9.2 mph - N/A   Clear
10:15 AM 69.8 °F 51.8 °F 53% 29.81 in 10.0 mi West 9.2 mph - N/A   Clear
10:35 AM 69.8 °F 51.8 °F 53% 29.82 in 10.0 mi West 8.1 mph - N/A   Clear
10:55 AM 71.6 °F 50.0 °F 46% 29.82 in 10.0 mi WNW 3.5 mph - N/A   Clear
11:15 AM 73.4 °F 42.8 °F 33% 29.82 in 10.0 mi NW 6.9 mph - N/A   Clear
11:35 AM 73.4 °F 37.4 °F 27% 29.82 in 10.0 mi NNW 6.9 mph - N/A   Clear
11:55 AM 75.2 °F 37.4 °F 25% 29.82 in 10.0 mi NNW 9.2 mph - N/A   Clear
12:15 PM 75.2 °F 37.4 °F 25% 29.82 in 10.0 mi NW 9.2 mph - N/A   Clear
12:35 PM 75.2 °F 37.4 °F 25% 29.82 in 10.0 mi NNW 8.1 mph - N/A   Clear
12:55 PM 75.2 °F 39.2 °F 27% 29.82 in 10.0 mi NNW 8.1 mph - N/A   Clear
1:15 PM 77.0 °F 39.2 °F 26% 29.83 in 10.0 mi Calm Calm - N/A   Clear
1:35 PM 77.0 °F 37.4 °F 24% 29.84 in 10.0 mi North 11.5 mph - N/A   Clear
1:55 PM 75.2 °F 37.4 °F 25% 29.84 in 10.0 mi NNW 9.2 mph - N/A   Clear
2:15 PM 75.2 °F 37.4 °F 25% 29.84 in 10.0 mi NNW 3.5 mph - N/A   Clear
2:35 PM 75.2 °F 35.6 °F 24% 29.84 in 10.0 mi Calm Calm - N/A   Clear
2:55 PM 75.2 °F 35.6 °F 24% 29.85 in 10.0 mi Calm Calm - N/A   Clear
3:15 PM 73.4 °F 35.6 °F 25% 29.86 in 10.0 mi Calm Calm - N/A   Clear
3:35 PM 75.2 °F 37.4 °F 25% 29.86 in 10.0 mi North 3.5 mph - N/A   Clear
3:55 PM 75.2 °F 35.6 °F 24% 29.87 in 10.0 mi NE 6.9 mph - N/A   Clear
4:15 PM 73.4 °F 35.6 °F 25% 29.88 in 10.0 mi Calm Calm - N/A   Clear
4:35 PM 73.4 °F 35.6 °F 25% 29.89 in 10.0 mi NNE 3.5 mph - N/A   Clear
4:55 PM 71.6 °F 35.6 °F 27% 29.90 in 10.0 mi Calm Calm - N/A   Clear
5:15 PM 69.8 °F 35.6 °F 28% 29.91 in 10.0 mi Calm Calm - N/A   Clear
5:35 PM 68.0 °F 35.6 °F 30% 29.92 in 10.0 mi Calm Calm - N/A   Clear
5:55 PM 64.4 °F 35.6 °F 34% 29.94 in 10.0 mi Calm Calm - N/A   Clear
6:15 PM 64.4 °F 35.6 °F 34% 29.95 in 10.0 mi NNE 10.4 mph - N/A   Clear
6:35 PM 64.4 °F 33.8 °F 32% 29.96 in 10.0 mi NNE 11.5 mph - N/A   Clear
6:55 PM 62.6 °F 33.8 °F 34% 29.97 in 10.0 mi NNE 12.7 mph - N/A   Clear
7:15 PM 62.6 °F 33.8 °F 34% 29.98 in 10.0 mi NNE 12.7 mph - N/A   Clear
7:35 PM 62.6 °F 33.8 °F 34% 29.99 in 10.0 mi NNE 12.7 mph - N/A   Clear
7:55 PM 60.8 °F 33.8 °F 36% 29.99 in 10.0 mi NNE 12.7 mph - N/A   Clear
8:15 PM 60.8 °F 33.8 °F 36% 30.00 in 10.0 mi NE 10.4 mph - N/A   Clear
8:35 PM 60.8 °F 33.8 °F 36% 30.01 in 10.0 mi NE 13.8 mph - N/A   Clear
8:55 PM 60.8 °F 33.8 °F 36% 30.02 in 10.0 mi NE 13.8 mph 20.7 mph N/A   Clear
9:15 PM 60.8 °F 32.0 °F 34% 30.03 in 10.0 mi NE 13.8 mph 21.9 mph N/A   Clear
9:35 PM 59.0 °F 32.0 °F 36% 30.04 in 10.0 mi NE 10.4 mph 18.4 mph N/A   Clear
9:55 PM 59.0 °F 32.0 °F 36% 30.05 in 10.0 mi NE 9.2 mph - N/A   Clear
10:15 PM 59.0 °F 32.0 °F 36% 30.07 in 10.0 mi Calm Calm - N/A   Clear
10:35 PM 57.2 °F 32.0 °F 38% 30.07 in 10.0 mi NE 10.4 mph - N/A   Clear
10:55 PM 57.2 °F 30.2 °F 36% 30.08 in 10.0 mi NE 10.4 mph 19.6 mph N/A   Clear
11:15 PM 55.4 °F 30.2 °F 38% 30.08 in 10.0 mi NE 11.5 mph 18.4 mph N/A   Clear
11:35 PM 55.4 °F 28.4 °F 36% 30.09 in 10.0 mi NE 11.5 mph 17.3 mph N/A   Clear
11:55 PM 55.4 °F 28.4 °F 36% 30.08 in 10.0 mi NE 12.7 mph 18.4 mph N/A   Clear